createdAt,value
2019-02-17T08:22:08.190Z,50.00
2019-02-17T08:22:43.675Z,50.00
2019-02-17T08:23:19.302Z,50.00
2019-02-17T08:23:54.957Z,50.00
2019-02-17T08:24:30.349Z,50.00
2019-02-17T08:25:05.569Z,50.00
2019-02-17T08:25:40.845Z,50.00
2019-02-17T08:26:16.062Z,50.00
2019-02-17T08:26:51.444Z,50.00
2019-02-17T08:27:26.764Z,50.00
2019-02-17T08:28:02.012Z,50.00
2019-02-17T08:28:37.531Z,50.00
2019-02-17T08:29:12.639Z,50.00
2019-02-17T08:29:48.257Z,56.00
2019-02-17T08:30:23.348Z,56.00
2019-02-17T08:30:59.154Z,56.00
2019-02-17T08:31:34.438Z,61.00
2019-02-17T08:32:09.937Z,61.00
2019-02-17T08:32:45.194Z,61.00
2019-02-17T08:33:20.838Z,61.00
2019-02-17T08:33:56.110Z,61.00
2019-02-17T08:34:31.635Z,56.00
2019-02-17T08:35:07.001Z,56.00
2019-02-17T08:35:42.198Z,56.00
2019-02-17T08:36:17.364Z,56.00
2019-02-17T08:36:52.797Z,56.00
2019-02-17T08:37:28.157Z,56.00
2019-02-17T08:38:04.029Z,61.00
2019-02-17T08:38:39.195Z,67.00
2019-02-17T08:39:14.507Z,73.00
2019-02-17T08:39:50.126Z,73.00
2019-02-17T08:40:25.438Z,73.00
2019-02-17T08:41:00.989Z,73.00
2019-02-17T08:41:36.503Z,73.00
2019-02-17T08:42:12.182Z,73.00
2019-02-17T08:42:47.404Z,78.00
2019-02-17T08:43:22.737Z,78.00
2019-02-17T08:44:00.734Z,78.00
2019-02-17T08:44:33.903Z,84.00
2019-02-17T08:45:09.508Z,84.00
2019-02-17T08:45:44.751Z,84.00
2019-02-17T08:46:19.961Z,84.00
2019-02-17T08:46:55.592Z,84.00
2019-02-17T08:47:31.014Z,84.00
2019-02-17T08:48:06.392Z,84.00
2019-02-17T08:48:41.517Z,84.00
2019-02-17T08:49:17.021Z,84.00
2019-02-17T08:49:52.527Z,84.00
2019-02-17T08:50:27.800Z,84.00
2019-02-17T08:51:03.276Z,84.00
2019-02-17T08:51:38.637Z,84.00
2019-02-17T08:52:13.966Z,84.00
2019-02-17T08:52:49.245Z,90.00
2019-02-17T08:53:24.643Z,90.00
2019-02-17T08:53:59.717Z,90.00
2019-02-17T08:54:34.931Z,90.00
2019-02-17T08:55:10.224Z,95.00
2019-02-17T08:55:45.557Z,90.00
2019-02-17T08:56:21.943Z,90.00
2019-02-17T08:56:57.663Z,90.00
2019-02-17T08:57:32.962Z,95.00
2019-02-17T08:58:08.287Z,95.00
2019-02-17T08:58:43.546Z,106.00
2019-02-17T08:59:19.080Z,101.00
2019-02-17T08:59:54.554Z,101.00
2019-02-17T09:00:29.770Z,101.00
2019-02-17T09:01:05.187Z,95.00
2019-02-17T09:01:41.221Z,95.00
2019-02-17T09:02:16.618Z,90.00
2019-02-17T09:02:52.039Z,84.00
2019-02-17T09:03:27.236Z,84.00
2019-02-17T09:04:02.638Z,90.00
2019-02-17T09:04:38.118Z,84.00
2019-02-17T09:05:13.431Z,78.00
2019-02-17T09:05:48.607Z,84.00
2019-02-17T09:06:24.154Z,84.00
2019-02-17T09:06:59.363Z,90.00
2019-02-17T09:07:34.872Z,95.00
2019-02-17T09:08:10.366Z,112.00
2019-02-17T09:08:45.587Z,112.00
2019-02-17T09:09:20.892Z,118.00
2019-02-17T09:09:56.126Z,118.00
2019-02-17T09:10:31.295Z,118.00
2019-02-17T09:11:06.690Z,118.00
2019-02-17T09:11:42.107Z,118.00
2019-02-17T09:12:17.423Z,118.00
2019-02-17T09:12:52.596Z,118.00
2019-02-17T09:13:27.999Z,118.00
2019-02-17T09:14:03.203Z,118.00
2019-02-17T09:14:38.321Z,118.00
2019-02-17T09:15:13.511Z,118.00
2019-02-17T09:15:48.624Z,112.00
2019-02-17T09:16:24.100Z,112.00
2019-02-17T09:16:59.399Z,118.00
2019-02-17T09:17:34.774Z,118.00
2019-02-17T09:18:09.996Z,118.00
2019-02-17T09:18:45.399Z,112.00
2019-02-17T09:19:20.613Z,118.00
2019-02-17T09:19:55.795Z,118.00
2019-02-17T09:20:31.318Z,118.00
2019-02-17T09:21:06.741Z,118.00
2019-02-17T09:21:42.429Z,118.00
2019-02-17T09:22:17.726Z,118.00
2019-02-17T09:22:52.930Z,118.00
2019-02-17T09:23:28.298Z,118.00
2019-02-17T09:24:03.622Z,112.00
2019-02-17T09:24:39.108Z,106.00
2019-02-17T09:25:14.614Z,101.00
2019-02-17T09:25:49.818Z,106.00
2019-02-17T09:26:25.166Z,112.00
2019-02-17T09:27:00.462Z,118.00
2019-02-17T09:27:35.923Z,118.00
2019-02-17T09:28:11.100Z,123.00
2019-02-17T09:28:46.434Z,123.00
2019-02-17T09:29:21.714Z,123.00
2019-02-17T09:29:57.136Z,123.00
2019-02-17T09:30:32.579Z,123.00
2019-02-17T09:31:08.191Z,118.00
2019-02-17T09:31:43.385Z,123.00
2019-02-17T09:32:18.715Z,123.00
2019-02-17T09:32:54.253Z,118.00
2019-02-17T09:33:29.564Z,118.00
2019-02-17T09:34:04.842Z,118.00
2019-02-17T09:34:40.089Z,118.00
2019-02-17T09:35:15.698Z,118.00
2019-02-17T09:35:50.809Z,112.00
2019-02-17T09:36:26.189Z,106.00
2019-02-17T09:37:01.716Z,106.00
2019-02-17T09:37:36.897Z,112.00
2019-02-17T09:38:12.047Z,112.00
2019-02-17T09:38:47.542Z,118.00
2019-02-17T09:39:22.858Z,118.00
2019-02-17T09:39:58.034Z,118.00
2019-02-17T09:40:33.445Z,112.00
2019-02-17T09:41:08.522Z,106.00
2019-02-17T09:41:44.733Z,106.00
2019-02-17T09:42:20.111Z,106.00
2019-02-17T09:42:55.533Z,106.00
2019-02-17T09:43:31.071Z,106.00
2019-02-17T09:44:06.301Z,101.00
2019-02-17T09:44:41.883Z,101.00
2019-02-17T09:45:16.913Z,101.00
2019-02-17T09:45:52.095Z,101.00
2019-02-17T09:46:27.310Z,106.00
2019-02-17T09:47:02.488Z,112.00
2019-02-17T09:47:37.812Z,112.00
2019-02-17T09:48:13.105Z,112.00
2019-02-17T09:48:48.544Z,123.00
2019-02-17T09:49:23.713Z,123.00
2019-02-17T09:49:59.338Z,112.00
2019-02-17T09:50:34.530Z,112.00
2019-02-17T09:51:09.645Z,106.00
2019-02-17T09:51:45.033Z,112.00
2019-02-17T09:52:20.554Z,112.00
2019-02-17T09:52:55.850Z,101.00
2019-02-17T09:53:30.948Z,101.00
2019-02-17T09:54:06.381Z,101.00
2019-02-17T09:54:41.796Z,106.00
2019-02-17T09:55:17.180Z,106.00
2019-02-17T09:55:52.476Z,106.00
2019-02-17T09:56:27.860Z,106.00
2019-02-17T09:57:03.196Z,106.00
2019-02-17T09:57:38.716Z,106.00
2019-02-17T09:58:14.041Z,101.00
2019-02-17T09:58:49.409Z,106.00
2019-02-17T09:59:24.751Z,106.00
2019-02-17T09:59:59.738Z,106.00
2019-02-17T10:00:35.447Z,101.00
2019-02-17T10:01:10.835Z,106.00
2019-02-17T10:01:46.062Z,101.00
2019-02-17T10:02:26.553Z,101.00
2019-02-17T10:02:57.190Z,101.00
2019-02-17T10:03:32.696Z,112.00
2019-02-17T10:04:07.905Z,112.00
2019-02-17T10:04:43.134Z,106.00
2019-02-17T10:05:18.573Z,112.00
2019-02-17T10:05:53.950Z,106.00
2019-02-17T10:06:29.178Z,106.00
2019-02-17T10:07:04.550Z,101.00
2019-02-17T10:07:40.390Z,106.00
2019-02-17T10:08:15.678Z,118.00
2019-02-17T10:08:51.182Z,118.00
2019-02-17T10:09:26.365Z,123.00
2019-02-17T10:10:01.842Z,123.00
2019-02-17T10:10:37.423Z,129.00
2019-02-17T10:11:12.731Z,129.00
2019-02-17T10:11:47.946Z,129.00
2019-02-17T10:12:23.359Z,129.00
2019-02-17T10:13:01.175Z,129.00
2019-02-17T10:13:34.249Z,129.00
2019-02-17T10:14:09.442Z,129.00
2019-02-17T10:14:44.658Z,129.00
2019-02-17T10:15:19.987Z,129.00
2019-02-17T10:15:55.428Z,129.00
2019-02-17T10:16:30.629Z,129.00
2019-02-17T10:17:06.036Z,129.00
2019-02-17T10:17:41.227Z,129.00
2019-02-17T10:18:16.666Z,129.00
2019-02-17T10:18:51.758Z,129.00
2019-02-17T10:19:27.277Z,129.00
2019-02-17T10:20:02.555Z,129.00
2019-02-17T10:20:37.826Z,129.00
2019-02-17T10:21:13.412Z,129.00
2019-02-17T10:21:48.831Z,129.00
2019-02-17T10:22:24.211Z,129.00
2019-02-17T10:22:59.623Z,129.00
2019-02-17T10:23:34.920Z,129.00
2019-02-17T10:24:10.368Z,123.00
2019-02-17T10:24:45.746Z,129.00
2019-02-17T10:25:20.974Z,123.00
2019-02-17T10:25:56.600Z,123.00
2019-02-17T10:26:31.620Z,123.00
2019-02-17T10:27:06.695Z,123.00
2019-02-17T10:27:42.296Z,118.00
2019-02-17T10:28:17.672Z,118.00
2019-02-17T10:28:52.991Z,118.00
2019-02-17T10:29:28.469Z,118.00
2019-02-17T10:30:04.088Z,118.00
2019-02-17T10:30:39.663Z,118.00
2019-02-17T10:31:15.034Z,118.00
2019-02-17T10:31:50.614Z,118.00
2019-02-17T10:32:35.811Z,118.00
2019-02-17T10:33:01.396Z,118.00
2019-02-17T10:33:38.097Z,112.00
2019-02-17T10:34:13.417Z,112.00
2019-02-17T10:34:48.937Z,112.00
2019-02-17T10:35:24.245Z,118.00
2019-02-17T10:35:59.975Z,118.00
2019-02-17T10:36:35.370Z,118.00
2019-02-17T10:37:10.881Z,118.00
2019-02-17T10:37:46.255Z,112.00
2019-02-17T10:38:21.798Z,112.00
2019-02-17T10:38:58.412Z,112.00
2019-02-17T10:39:32.326Z,112.00
2019-02-17T10:40:07.720Z,106.00
2019-02-17T10:40:43.240Z,106.00
2019-02-17T10:41:18.629Z,101.00
2019-02-17T10:41:54.530Z,101.00
2019-02-17T10:42:29.712Z,101.00
2019-02-17T10:43:04.824Z,101.00
2019-02-17T10:43:40.008Z,95.00
2019-02-17T10:44:15.431Z,95.00
2019-02-17T10:44:50.941Z,95.00
2019-02-17T10:45:26.549Z,95.00
2019-02-17T10:46:01.732Z,95.00
2019-02-17T10:46:37.616Z,95.00
2019-02-17T10:47:13.336Z,95.00
2019-02-17T10:47:48.772Z,90.00
2019-02-17T10:48:23.941Z,90.00
2019-02-17T10:48:59.357Z,90.00
2019-02-17T10:49:34.874Z,90.00
2019-02-17T10:50:10.488Z,84.00
2019-02-17T10:50:45.680Z,84.00
2019-02-17T10:51:21.400Z,78.00
2019-02-17T10:51:57.087Z,78.00
2019-02-17T10:52:32.522Z,78.00
2019-02-17T10:53:07.614Z,73.00
2019-02-17T10:53:42.846Z,73.00
2019-02-17T10:54:18.122Z,73.00
2019-02-17T10:54:53.366Z,73.00
2019-02-17T10:55:28.735Z,73.00
2019-02-17T10:56:04.365Z,73.00
2019-02-17T10:56:39.566Z,73.00
2019-02-17T10:57:14.959Z,67.00
2019-02-17T10:57:50.297Z,67.00
2019-02-17T10:58:25.922Z,67.00
2019-02-17T10:59:01.305Z,67.00
2019-02-17T10:59:36.587Z,67.00
2019-02-17T11:00:12.033Z,67.00
2019-02-17T11:00:47.261Z,67.00
2019-02-17T11:01:22.659Z,67.00
2019-02-17T11:01:57.956Z,67.00
2019-02-17T11:02:33.341Z,67.00
2019-02-17T11:03:08.822Z,67.00
2019-02-17T11:03:44.233Z,67.00
2019-02-17T11:04:19.650Z,61.00
2019-02-17T11:04:54.919Z,61.00
2019-02-17T11:05:30.039Z,67.00
2019-02-17T11:06:05.335Z,61.00
2019-02-17T11:06:40.663Z,61.00
2019-02-17T11:07:16.183Z,67.00
2019-02-17T11:07:51.605Z,61.00
2019-02-17T11:08:27.056Z,61.00
2019-02-17T11:09:02.551Z,61.00
2019-02-17T11:09:38.178Z,61.00
2019-02-17T11:10:13.490Z,61.00
2019-02-17T11:10:48.791Z,61.00
2019-02-17T11:11:24.324Z,56.00
2019-02-17T11:11:59.911Z,61.00
2019-02-17T11:12:35.545Z,61.00
2019-02-17T11:13:10.853Z,61.00
2019-02-17T11:13:46.309Z,61.00
2019-02-17T11:14:21.899Z,56.00
2019-02-17T11:14:57.530Z,56.00
2019-02-17T11:15:33.226Z,56.00
2019-02-17T11:16:08.653Z,56.00
2019-02-17T11:16:43.944Z,56.00
2019-02-17T11:17:19.186Z,56.00
2019-02-17T11:17:54.698Z,61.00
2019-02-17T11:18:29.940Z,56.00
2019-02-17T11:19:05.318Z,56.00
2019-02-17T11:19:40.600Z,56.00
2019-02-17T11:20:15.993Z,56.00
2019-02-17T11:20:51.232Z,56.00
2019-02-17T11:21:26.607Z,56.00
2019-02-17T11:22:02.142Z,56.00
2019-02-17T11:22:37.329Z,56.00
2019-02-17T11:23:12.568Z,56.00
2019-02-17T11:23:47.870Z,56.00
2019-02-17T11:24:23.412Z,56.00
2019-02-17T11:24:58.734Z,56.00
2019-02-17T11:25:34.125Z,56.00
2019-02-17T11:26:09.455Z,56.00
2019-02-17T11:26:45.088Z,56.00
2019-02-17T11:27:20.404Z,56.00
2019-02-17T11:27:55.528Z,56.00
2019-02-17T11:28:30.813Z,50.00
2019-02-17T11:29:06.268Z,56.00
2019-02-17T11:29:41.381Z,56.00
2019-02-17T11:30:16.912Z,56.00
2019-02-17T11:30:52.321Z,56.00
2019-02-17T11:31:27.667Z,56.00
2019-02-17T11:32:03.088Z,50.00
2019-02-17T11:32:38.208Z,50.00
2019-02-17T11:33:13.609Z,50.00
2019-02-17T11:33:49.224Z,50.00
2019-02-17T11:34:24.315Z,50.00
2019-02-17T11:34:59.678Z,50.00
2019-02-17T11:35:35.278Z,50.00
2019-02-17T11:36:10.724Z,50.00
2019-02-17T11:36:46.232Z,50.00
2019-02-17T11:37:22.006Z,50.00
2019-02-17T11:37:57.619Z,50.00
2019-02-17T11:38:32.977Z,50.00
2019-02-17T11:39:08.381Z,50.00
2019-02-17T11:39:43.799Z,50.00
2019-02-17T11:40:19.337Z,50.00
2019-02-17T11:40:54.762Z,50.00
2019-02-17T11:41:30.087Z,50.00
2019-02-17T11:42:05.335Z,50.00
2019-02-17T11:42:40.857Z,50.00
2019-02-17T11:43:16.220Z,56.00
2019-02-17T11:43:51.525Z,56.00
2019-02-17T11:44:26.685Z,56.00
2019-02-17T11:45:02.274Z,56.00
2019-02-17T11:45:38.007Z,56.00
2019-02-17T11:46:13.195Z,50.00
2019-02-17T11:46:48.728Z,50.00
2019-02-17T11:47:24.322Z,56.00
2019-02-17T11:47:59.761Z,56.00
2019-02-17T11:48:35.148Z,56.00
2019-02-17T11:49:10.471Z,56.00
2019-02-17T11:49:45.678Z,56.00
2019-02-17T11:50:21.006Z,56.00
2019-02-17T11:50:56.435Z,56.00
2019-02-17T11:51:31.758Z,50.00
2019-02-17T11:52:07.265Z,56.00
2019-02-17T11:52:42.797Z,56.00
2019-02-17T11:53:18.302Z,45.00
2019-02-17T11:53:53.931Z,50.00
2019-02-17T11:54:29.227Z,45.00
2019-02-17T11:55:04.698Z,50.00
2019-02-17T11:55:40.226Z,50.00
2019-02-17T11:56:15.465Z,50.00
2019-02-17T11:56:50.828Z,56.00
2019-02-17T11:57:26.230Z,50.00
2019-02-17T11:58:01.532Z,50.00
2019-02-17T11:58:37.066Z,50.00
2019-02-17T11:59:12.418Z,50.00
2019-02-17T11:59:47.657Z,50.00
2019-02-17T12:00:23.215Z,45.00
2019-02-17T12:00:58.677Z,45.00
2019-02-17T12:01:34.463Z,50.00
2019-02-17T12:02:09.901Z,50.00
2019-02-17T12:02:45.180Z,50.00
2019-02-17T12:03:20.712Z,50.00
2019-02-17T12:03:56.101Z,50.00
2019-02-17T12:04:31.894Z,50.00
2019-02-17T12:05:07.161Z,50.00
2019-02-17T12:05:42.791Z,50.00
2019-02-17T12:06:18.192Z,50.00
2019-02-17T12:06:53.653Z,50.00
2019-02-17T12:07:28.878Z,50.00
2019-02-17T12:08:04.393Z,50.00
2019-02-17T12:08:39.601Z,50.00
2019-02-17T12:09:14.932Z,50.00
2019-02-17T12:09:50.253Z,50.00
2019-02-17T12:10:25.802Z,50.00
2019-02-17T12:11:01.132Z,50.00
2019-02-17T12:11:37.310Z,50.00
2019-02-17T12:12:13.729Z,50.00
2019-02-17T12:12:48.219Z,50.00
2019-02-17T12:13:23.526Z,50.00
2019-02-17T12:13:59.185Z,50.00
2019-02-17T12:14:34.686Z,45.00
2019-02-17T12:15:10.319Z,50.00
2019-02-17T12:15:46.011Z,50.00
2019-02-17T12:16:21.763Z,50.00
2019-02-17T12:16:57.077Z,50.00
2019-02-17T12:17:32.768Z,50.00
2019-02-17T12:18:08.254Z,50.00
2019-02-17T12:18:43.690Z,50.00
2019-02-17T12:19:18.668Z,50.00
2019-02-17T12:19:53.834Z,50.00
2019-02-17T12:20:29.018Z,50.00
2019-02-17T12:21:04.353Z,50.00
2019-02-17T12:21:39.878Z,50.00
2019-02-17T12:22:15.507Z,50.00
2019-02-17T12:22:50.846Z,50.00
2019-02-17T12:23:26.287Z,50.00
2019-02-17T12:24:02.616Z,50.00
2019-02-17T12:24:37.163Z,45.00
2019-02-17T12:25:12.746Z,45.00
2019-02-17T12:25:48.112Z,50.00
2019-02-17T12:26:23.399Z,45.00
2019-02-17T12:26:58.966Z,45.00
2019-02-17T12:27:34.268Z,45.00
2019-02-17T12:28:10.039Z,45.00
2019-02-17T12:28:45.556Z,45.00
2019-02-17T12:29:20.868Z,45.00
2019-02-17T12:29:56.395Z,45.00
2019-02-17T12:30:32.023Z,45.00
2019-02-17T12:31:07.329Z,39.00
2019-02-17T12:31:42.758Z,39.00
2019-02-17T12:32:18.074Z,39.00
2019-02-17T12:32:53.500Z,45.00
2019-02-17T12:33:28.714Z,45.00
2019-02-17T12:34:04.246Z,39.00
2019-02-17T12:34:39.338Z,39.00
2019-02-17T12:35:14.657Z,39.00
2019-02-17T12:35:50.065Z,39.00
2019-02-17T12:36:25.385Z,33.00
2019-02-17T12:37:00.772Z,39.00
2019-02-17T12:37:35.902Z,33.00
2019-02-17T12:38:11.508Z,33.00
2019-02-17T12:38:47.007Z,39.00
2019-02-17T12:39:22.303Z,33.00
2019-02-17T12:39:57.695Z,33.00
2019-02-17T12:40:33.148Z,33.00
2019-02-17T12:41:08.523Z,39.00
2019-02-17T12:41:43.963Z,33.00
2019-02-17T12:42:19.403Z,33.00
2019-02-17T12:42:54.704Z,33.00
2019-02-17T12:43:30.484Z,33.00
2019-02-17T12:44:05.704Z,33.00
2019-02-17T12:44:40.945Z,33.00
2019-02-17T12:45:18.226Z,33.00
2019-02-17T12:45:51.574Z,33.00
2019-02-17T12:46:26.899Z,33.00
2019-02-17T12:47:02.440Z,33.00
2019-02-17T12:47:37.999Z,33.00
2019-02-17T12:48:13.439Z,33.00
2019-02-17T12:48:48.749Z,33.00
2019-02-17T12:49:24.155Z,28.00
2019-02-17T12:49:59.383Z,33.00
2019-02-17T12:50:34.727Z,33.00
2019-02-17T12:51:10.141Z,28.00
2019-02-17T12:51:46.018Z,33.00
2019-02-17T12:52:21.412Z,28.00
2019-02-17T12:52:56.897Z,28.00
2019-02-17T12:53:32.606Z,33.00
2019-02-17T12:54:08.069Z,33.00
2019-02-17T12:54:43.518Z,28.00
2019-02-17T12:55:18.840Z,28.00
2019-02-17T12:55:54.198Z,28.00
2019-02-17T12:56:29.496Z,33.00
2019-02-17T12:57:04.834Z,33.00
2019-02-17T12:57:40.587Z,33.00
2019-02-17T12:58:15.837Z,28.00
2019-02-17T12:58:51.191Z,33.00
2019-02-17T12:59:26.470Z,33.00
2019-02-17T13:00:02.026Z,28.00
2019-02-17T13:00:37.222Z,28.00
2019-02-17T13:01:13.552Z,28.00
2019-02-17T13:01:48.531Z,28.00
2019-02-17T13:02:23.550Z,28.00
2019-02-17T13:02:58.756Z,28.00
2019-02-17T13:03:33.989Z,28.00
2019-02-17T13:04:09.278Z,28.00
2019-02-17T13:04:44.501Z,28.00
2019-02-17T13:05:20.173Z,28.00
2019-02-17T13:05:55.442Z,28.00
2019-02-17T13:06:31.024Z,28.00
2019-02-17T13:07:06.151Z,28.00
2019-02-17T13:07:42.909Z,28.00
2019-02-17T13:08:17.504Z,28.00
2019-02-17T13:08:52.707Z,28.00
2019-02-17T13:09:28.129Z,28.00
2019-02-17T13:10:03.628Z,28.00
2019-02-17T13:10:38.979Z,28.00
2019-02-17T13:11:14.477Z,28.00
2019-02-17T13:11:49.698Z,28.00
2019-02-17T13:12:24.995Z,28.00
2019-02-17T13:13:01.222Z,28.00
2019-02-17T13:13:36.517Z,28.00
2019-02-17T13:14:11.953Z,28.00
2019-02-17T13:14:47.356Z,28.00
2019-02-17T13:15:22.684Z,28.00
2019-02-17T13:15:57.814Z,28.00
2019-02-17T13:16:33.336Z,28.00
2019-02-17T13:17:08.959Z,28.00
2019-02-17T13:17:44.395Z,28.00
2019-02-17T13:18:19.584Z,28.00
2019-02-17T13:18:55.004Z,28.00
2019-02-17T13:19:30.348Z,28.00
2019-02-17T13:20:05.861Z,28.00
2019-02-17T13:20:41.179Z,28.00
2019-02-17T13:21:16.693Z,28.00
2019-02-17T13:21:52.170Z,28.00
2019-02-17T13:22:27.496Z,28.00
2019-02-17T13:23:02.994Z,28.00
2019-02-17T13:23:38.437Z,28.00
2019-02-17T13:24:13.742Z,22.00
2019-02-17T13:24:49.183Z,22.00
2019-02-17T13:25:24.590Z,28.00
2019-02-17T13:25:59.926Z,28.00
2019-02-17T13:26:35.536Z,28.00
2019-02-17T13:27:10.768Z,28.00
2019-02-17T13:27:46.039Z,28.00
2019-02-17T13:28:21.551Z,28.00
2019-02-17T13:28:56.953Z,28.00
2019-02-17T13:29:32.179Z,28.00
2019-02-17T13:30:07.487Z,28.00
2019-02-17T13:30:43.123Z,28.00
2019-02-17T13:31:18.726Z,28.00
2019-02-17T13:31:54.181Z,28.00
2019-02-17T13:32:29.572Z,28.00
2019-02-17T13:33:05.003Z,28.00
2019-02-17T13:33:40.288Z,28.00
2019-02-17T13:34:15.612Z,28.00
2019-02-17T13:34:51.128Z,28.00
2019-02-17T13:35:26.673Z,28.00
2019-02-17T13:36:02.171Z,28.00
2019-02-17T13:36:37.584Z,28.00
2019-02-17T13:37:13.116Z,28.00
2019-02-17T13:37:48.351Z,28.00
2019-02-17T13:38:23.652Z,28.00
2019-02-17T13:38:58.763Z,28.00
2019-02-17T13:39:34.154Z,28.00
2019-02-17T13:40:09.680Z,28.00
2019-02-17T13:40:44.969Z,28.00
2019-02-17T13:41:20.376Z,28.00
2019-02-17T13:41:55.664Z,28.00
2019-02-17T13:42:31.224Z,28.00
2019-02-17T13:43:06.832Z,28.00
2019-02-17T13:43:42.250Z,28.00
2019-02-17T13:44:17.549Z,28.00
2019-02-17T13:44:52.783Z,28.00
2019-02-17T13:45:28.182Z,28.00
2019-02-17T13:46:03.704Z,28.00
2019-02-17T13:46:39.206Z,22.00
2019-02-17T13:47:14.631Z,28.00
2019-02-17T13:47:50.359Z,28.00
2019-02-17T13:48:25.698Z,28.00
2019-02-17T13:49:00.797Z,28.00
2019-02-17T13:49:36.016Z,28.00
2019-02-17T13:50:11.330Z,28.00
2019-02-17T13:50:47.023Z,28.00
2019-02-17T13:51:22.167Z,28.00
2019-02-17T13:51:57.499Z,28.00
2019-02-17T13:52:32.925Z,28.00
2019-02-17T13:53:11.847Z,22.00
2019-02-17T13:53:43.803Z,22.00
2019-02-17T13:54:18.936Z,22.00
2019-02-17T13:54:54.267Z,28.00
2019-02-17T13:55:29.495Z,28.00
2019-02-17T13:56:04.892Z,28.00
2019-02-17T13:56:40.411Z,28.00
2019-02-17T13:57:15.822Z,22.00
2019-02-17T13:57:52.427Z,22.00
2019-02-17T13:58:26.678Z,22.00
2019-02-17T13:59:02.011Z,22.00
2019-02-17T13:59:37.533Z,22.00
2019-02-17T14:00:12.862Z,22.00
2019-02-17T14:00:48.166Z,22.00
2019-02-17T14:01:23.692Z,22.00
2019-02-17T14:01:58.905Z,22.00
2019-02-17T14:02:34.533Z,22.00
2019-02-17T14:03:09.828Z,22.00
2019-02-17T14:03:48.975Z,22.00
2019-02-17T14:04:20.834Z,28.00
2019-02-17T14:04:56.182Z,22.00
2019-02-17T14:05:31.595Z,22.00
2019-02-17T14:06:07.225Z,22.00
2019-02-17T14:06:42.627Z,22.00
2019-02-17T14:07:18.054Z,22.00
2019-02-17T14:07:53.454Z,22.00
2019-02-17T14:08:31.229Z,22.00
2019-02-17T14:09:04.030Z,22.00
2019-02-17T14:09:39.674Z,22.00
2019-02-17T14:10:15.097Z,22.00
2019-02-17T14:10:50.732Z,22.00
2019-02-17T14:11:26.154Z,22.00
2019-02-17T14:12:04.887Z,22.00
2019-02-17T14:12:40.314Z,22.00
2019-02-17T14:13:15.871Z,22.00
2019-02-17T14:13:51.447Z,22.00
2019-02-17T14:14:26.835Z,22.00
2019-02-17T14:15:02.236Z,22.00
2019-02-17T14:15:38.410Z,22.00
2019-02-17T14:16:13.604Z,22.00
2019-02-17T14:16:48.947Z,22.00
2019-02-17T14:17:24.247Z,22.00
2019-02-17T14:17:59.702Z,22.00
2019-02-17T14:18:34.995Z,16.00
2019-02-17T14:19:10.215Z,16.00
2019-02-17T14:19:46.032Z,16.00
2019-02-17T14:20:20.888Z,16.00
2019-02-17T14:20:56.386Z,22.00
2019-02-17T14:21:31.725Z,16.00
2019-02-17T14:22:07.115Z,22.00
2019-02-17T14:22:42.548Z,22.00
2019-02-17T14:23:17.834Z,22.00
2019-02-17T14:23:53.092Z,16.00
2019-02-17T14:24:28.417Z,16.00
2019-02-17T14:25:03.784Z,16.00
2019-02-17T14:25:38.881Z,16.00
2019-02-17T14:26:14.428Z,22.00
2019-02-17T14:26:49.569Z,16.00
2019-02-17T14:27:24.886Z,22.00
2019-02-17T14:28:00.290Z,16.00
2019-02-17T14:28:35.535Z,16.00
2019-02-17T14:29:10.946Z,16.00
2019-02-17T14:29:46.478Z,16.00
2019-02-17T14:30:21.804Z,16.00
2019-02-17T14:30:57.040Z,16.00
2019-02-17T14:31:32.385Z,16.00
2019-02-17T14:32:07.610Z,16.00
2019-02-17T14:32:42.939Z,16.00
2019-02-17T14:33:18.273Z,22.00
2019-02-17T14:33:58.512Z,22.00
2019-02-17T14:34:28.810Z,16.00
2019-02-17T14:35:04.422Z,16.00
2019-02-17T14:35:39.890Z,16.00
2019-02-17T14:36:15.213Z,16.00
2019-02-17T14:36:50.653Z,16.00
2019-02-17T14:37:26.249Z,16.00
2019-02-17T14:38:01.595Z,16.00
2019-02-17T14:38:36.682Z,16.00
2019-02-17T14:39:12.138Z,16.00
2019-02-17T14:39:47.639Z,16.00
2019-02-17T14:40:22.889Z,16.00
2019-02-17T14:40:58.121Z,16.00
2019-02-17T14:41:33.358Z,22.00
2019-02-17T14:42:08.648Z,16.00
2019-02-17T14:42:44.424Z,16.00
2019-02-17T14:43:19.725Z,16.00
2019-02-17T14:43:55.051Z,16.00
2019-02-17T14:44:30.361Z,16.00
2019-02-17T14:45:05.587Z,22.00
2019-02-17T14:45:40.975Z,16.00
2019-02-17T14:46:17.476Z,16.00
2019-02-17T14:46:52.839Z,16.00
2019-02-17T14:47:28.798Z,16.00
2019-02-17T14:48:04.581Z,16.00
2019-02-17T14:48:39.913Z,16.00
2019-02-17T14:49:15.318Z,16.00
2019-02-17T14:49:50.908Z,16.00
2019-02-17T14:50:26.508Z,16.00
2019-02-17T14:51:02.017Z,16.00
2019-02-17T14:51:37.586Z,16.00
2019-02-17T14:52:13.110Z,16.00
2019-02-17T14:52:48.417Z,16.00
2019-02-17T14:53:23.763Z,16.00
2019-02-17T14:53:59.255Z,16.00
2019-02-17T14:54:34.693Z,16.00
2019-02-17T14:55:10.211Z,16.00
2019-02-17T14:55:45.559Z,16.00
2019-02-17T14:56:21.045Z,16.00
2019-02-17T14:56:56.955Z,16.00
2019-02-17T14:57:32.460Z,16.00
2019-02-17T14:58:08.029Z,16.00
2019-02-17T14:58:43.324Z,16.00
2019-02-17T14:59:18.744Z,16.00
2019-02-17T14:59:54.040Z,16.00
2019-02-17T15:00:29.469Z,16.00
2019-02-17T15:01:04.779Z,16.00
2019-02-17T15:01:40.112Z,16.00
2019-02-17T15:02:15.535Z,16.00
2019-02-17T15:02:50.868Z,16.00
2019-02-17T15:03:26.066Z,16.00
2019-02-17T15:04:08.479Z,16.00
2019-02-17T15:04:36.794Z,16.00
2019-02-17T15:05:12.227Z,16.00
2019-02-17T15:05:48.014Z,16.00
2019-02-17T15:06:23.075Z,16.00
2019-02-17T15:06:58.694Z,16.00
2019-02-17T15:07:33.971Z,16.00
2019-02-17T15:08:09.363Z,16.00
2019-02-17T15:08:44.686Z,16.00
2019-02-17T15:09:20.186Z,11.00
2019-02-17T15:09:55.598Z,11.00
2019-02-17T15:10:30.903Z,16.00
2019-02-17T15:11:06.651Z,11.00
2019-02-17T15:11:42.256Z,16.00
2019-02-17T15:12:17.679Z,16.00
2019-02-17T15:12:53.381Z,16.00
2019-02-17T15:13:28.735Z,16.00
2019-02-17T15:14:04.156Z,16.00
2019-02-17T15:14:39.362Z,11.00
2019-02-17T15:15:14.581Z,11.00
2019-02-17T15:15:50.099Z,11.00
2019-02-17T15:16:25.351Z,11.00
2019-02-17T15:17:00.561Z,11.00
2019-02-17T15:17:35.971Z,16.00
2019-02-17T15:18:11.232Z,16.00
2019-02-17T15:18:47.480Z,16.00
2019-02-17T15:19:22.373Z,11.00
2019-02-17T15:19:57.860Z,11.00
2019-02-17T15:20:33.289Z,11.00
2019-02-17T15:21:08.610Z,11.00
2019-02-17T15:21:43.848Z,11.00
2019-02-17T15:22:19.249Z,11.00
2019-02-17T15:22:54.635Z,11.00
2019-02-17T15:23:30.580Z,11.00
2019-02-17T15:24:07.860Z,11.00
2019-02-17T15:24:41.465Z,11.00
2019-02-17T15:25:16.779Z,11.00
2019-02-17T15:25:52.087Z,11.00
2019-02-17T15:26:28.012Z,11.00
2019-02-17T15:27:03.757Z,11.00
2019-02-17T15:27:38.800Z,11.00
2019-02-17T15:28:14.189Z,11.00
2019-02-17T15:28:51.361Z,11.00
2019-02-17T15:29:24.648Z,11.00
2019-02-17T15:29:59.823Z,11.00
2019-02-17T15:30:35.323Z,11.00
2019-02-17T15:31:10.940Z,11.00
2019-02-17T15:31:46.253Z,11.00
2019-02-17T15:32:21.949Z,11.00
2019-02-17T15:33:03.606Z,11.00
2019-02-17T15:33:32.717Z,11.00
2019-02-17T15:34:08.043Z,11.00
2019-02-17T15:34:43.475Z,11.00
2019-02-17T15:35:18.887Z,11.00
2019-02-17T15:35:54.631Z,11.00
2019-02-17T15:36:29.739Z,11.00
2019-02-17T15:37:04.882Z,11.00
2019-02-17T15:37:40.084Z,11.00
2019-02-17T15:38:15.414Z,11.00
2019-02-17T15:38:51.007Z,11.00
2019-02-17T15:39:26.721Z,11.00
2019-02-17T15:40:01.917Z,11.00
2019-02-17T15:40:37.275Z,11.00
2019-02-17T15:41:12.657Z,11.00
2019-02-17T15:41:48.093Z,11.00
2019-02-17T15:42:23.415Z,11.00
2019-02-17T15:42:58.552Z,11.00
2019-02-17T15:43:33.647Z,11.00
2019-02-17T15:44:08.868Z,5.00
2019-02-17T15:44:44.608Z,5.00
2019-02-17T15:45:20.136Z,11.00
2019-02-17T15:45:55.774Z,5.00
2019-02-17T15:46:31.217Z,5.00
2019-02-17T15:47:06.427Z,5.00
2019-02-17T15:47:41.997Z,5.00
2019-02-17T15:48:17.704Z,5.00
2019-02-17T15:48:53.835Z,5.00
2019-02-17T15:49:29.151Z,5.00
2019-02-17T15:50:04.913Z,5.00
2019-02-17T15:50:40.421Z,5.00
2019-02-17T15:51:16.589Z,5.00
2019-02-17T15:51:52.937Z,5.00
2019-02-17T15:52:36.308Z,5.00
2019-02-17T15:53:17.549Z,5.00
2019-02-17T15:53:53.811Z,5.00
2019-02-17T15:54:29.296Z,5.00
2019-02-17T15:55:04.654Z,5.00